Flight Track Log - Related Links

Times and Time Zones

All times are in EDT time to prevent confusion due to time zone crossing. See the N818BL flight status page for this flight to view local times or setup timezone preferences in your user account.

Time Position Orientation Groundspeed Altitude Reporting Facility
EDT Latitude Longitude Course Direction KTS MPH feet Rate Location/Type
Sun 09:12:27 AM 32.1403 -80.7556 320° Northwest 231 266 4,100  Level Jacksonville Center
Sun 09:13:27 AM 32.1142 -80.8272 247° West 247 284 7,700 3,200 Climbing Jacksonville Center
Sun 09:14:27 AM 32.1319 -80.8981 287° West 266 306 10,500 3,050 Climbing Jacksonville Center
Sun 09:15:27 AM 32.1936 -80.9728 314° West 282 325 13,800 2,550 Climbing Jacksonville Center
Sun 09:16:27 AM 32.2306 -81.0556 298° West 310 357 15,600 1,850 Climbing Jacksonville Center
Sun 09:17:00 AM 32.5953 -81.0619 320° Northwest  Level FlightAware Approximate
Sun 09:17:27 AM 32.2758 -81.1653 296° West 341 392 17,500  Level Jacksonville Center
Sun 09:18:27 AM 32.3275 -81.2725 300° West 366 421 18,700 1,400 Climbing Jacksonville Center
Sun 09:19:27 AM 32.3767 -81.3822 298° West 378 435 20,300 957 Climbing Jacksonville Center
Sun 09:21:54 AM 32.4978 -81.6475 298° West 390 449 22,000 493 Climbing Atlanta Center
Sun 09:22:54 AM 32.5481 -81.7669 297° West 395 455 22,000  Level Atlanta Center
Sun 09:23:54 AM 32.6000 -81.8789 299° West 400 460 22,000  Level Atlanta Center
Sun 09:24:54 AM 32.6522 -81.9936 298° West 400 460 22,000  Level Atlanta Center
Sun 09:25:54 AM 32.7042 -82.1108 298° West 400 460 22,000  Level Atlanta Center
Sun 09:26:54 AM 32.7558 -82.2233 299° West 400 460 22,000  Level Atlanta Center
Sun 09:27:54 AM 32.8078 -82.3408 298° West 400 460 22,000  Level Atlanta Center
Sun 09:28:54 AM 32.8594 -82.4536 299° West 400 460 22,000  Level Atlanta Center
Sun 09:29:54 AM 32.9089 -82.5717 297° West 400 460 22,000  Level Atlanta Center
Sun 09:30:54 AM 32.9622 -82.6869 299° West 400 460 22,000  Level Atlanta Center
Sun 09:31:54 AM 33.0117 -82.8075 296° West 400 460 22,000 -100 Level Atlanta Center
Sun 09:32:54 AM 33.0647 -82.9208 299° West 400 460 21,800 -1,000 Descending Atlanta Center
Sun 09:33:54 AM 33.1161 -83.0417 297° West 405 466 20,000 -1,700 Descending Atlanta Center
Sun 09:34:54 AM 33.1650 -83.1553 297° West 397 457 18,400 -1,600 Descending Atlanta Center
Sun 09:35:54 AM 33.2136 -83.2617 299° West 380 437 16,800 -1,650 Descending Atlanta Center
Sun 09:36:54 AM 33.2581 -83.3706 296° West 367 422 15,100 -1,800 Descending Atlanta Center
Sun 09:37:54 AM 33.3108 -83.4844 299° West 361 415 13,200 -1,800 Descending Atlanta Center
Sun 09:38:54 AM 33.3508 -83.5861 295° West 349 402 11,500 -1,100 Descending Atlanta Center
Sun 09:39:54 AM 33.3972 -83.6731 303° West 333 383 11,000 -300 Descending Atlanta Center
Sun 09:40:54 AM 33.4683 -83.7325 325° Northwest 301 346 10,900 -550 Descending Atlanta Center
Sun 09:41:54 AM 33.5436 -83.7822 331° Northwest 310 357 9,900 -1,350 Descending Atlanta Center
Sun 09:42:54 AM 33.6269 -83.7994 350° North 294 338 8,200 -1,600 Descending Atlanta Center
Sun 09:43:54 AM 33.7125 -83.8042 357° North 303 349 6,700 -1,500 Descending Atlanta Center
Sun 09:44:54 AM 33.7897 -83.8139 354° North 287 330 5,200 -1,350 Descending Atlanta Center
Sun 09:45:54 AM 33.8525 -83.8661 325° Northwest 269 310 4,000 -600 Descending Atlanta Center
Sun 09:46:54 AM 33.9069 -83.9061 329° Northwest 248 285 4,000  Level Atlanta Center
Sun 09:47:54 AM 33.9403 -83.9586 307° West 209 241 4,000  Level Atlanta Center
Sun 09:49:13 AM 33.9833 -84.0333 305° West 194 223 4,000 -216 Level Atlanta TRACON
Sun 09:50:13 AM 33.9833 -84.0833 270° West 192 221 3,500 -500 Descending Atlanta TRACON
Sun 09:51:13 AM 34.0000 -84.1500 287° West 199 229 3,000 -250 Descending Atlanta TRACON
Sun 09:52:13 AM 34.0167 -84.2167 287° West 176 203 3,000  Level Atlanta TRACON
Sun 09:53:13 AM 33.9833 -84.2500 220° Southwest 172 198 3,000 -300 Level Atlanta TRACON
Sun 09:54:13 AM 33.9500 -84.2667 203° Southwest 142 163 2,400 -650 Descending Atlanta TRACON
Sun 09:55:13 AM 33.9167 -84.2833 203° Southwest 123 142 1,700 -700 Descending Atlanta TRACON
Sun 09:57:00 AM 33.8756 -84.3020 220° Southwest  Level Estimated
Sun 10:04:00 AM 33.8756 -84.3020 220° Southwest  Level Estimated

Login

Don't have an account? Register now (free) for customized features, flight alerts, and more!